sensor_id;sensor_type;location;lat;lon;timestamp;temperature;humidity
5415;DHT22;2730;51.512;7.504;2023-05-24T00:01:29;8.60;99.90
5415;DHT22;2730;51.512;7.504;2023-05-24T00:03:55;8.60;99.90
5415;DHT22;2730;51.512;7.504;2023-05-24T00:06:23;8.50;99.90
5415;DHT22;2730;51.512;7.504;2023-05-24T00:08:50;8.50;99.90
5415;DHT22;2730;51.512;7.504;2023-05-24T00:11:17;8.50;1.00
5415;DHT22;2730;51.512;7.504;2023-05-24T00:13:44;8.40;1.00
5415;DHT22;2730;51.512;7.504;2023-05-24T00:16:12;8.40;1.00
5415;DHT22;2730;51.512;7.504;2023-05-24T00:18:39;8.40;1.00
5415;DHT22;2730;51.512;7.504;2023-05-24T00:21:06;8.40;1.00
5415;DHT22;2730;51.512;7.504;2023-05-24T00:23:34;8.30;1.00
5415;DHT22;2730;51.512;7.504;2023-05-24T00:26:01;8.30;99.90
5415;DHT22;2730;51.512;7.504;2023-05-24T00:28:28;8.30;99.90
5415;DHT22;2730;51.512;7.504;2023-05-24T00:30:55;8.20;99.90
5415;DHT22;2730;51.512;7.504;2023-05-24T00:33:24;8.20;99.90
5415;DHT22;2730;51.512;7.504;2023-05-24T00:35:51;8.10;41.90
5415;DHT22;2730;51.512;7.504;2023-05-24T00:38:21;8.10;45.30
5415;DHT22;2730;51.512;7.504;2023-05-24T00:40:47;8.10;99.90
5415;DHT22;2730;51.512;7.504;2023-05-24T00:43:14;8.00;99.90
5415;DHT22;2730;51.512;7.504;2023-05-24T00:45:41;7.90;99.90
5415;DHT22;2730;51.512;7.504;2023-05-24T00:48:08;7.90;99.90
5415;DHT22;2730;51.512;7.504;2023-05-24T00:50:38;7.90;99.90
5415;DHT22;2730;51.512;7.504;2023-05-24T00:53:06;7.90;1.00
5415;DHT22;2730;51.512;7.504;2023-05-24T00:55:33;7.90;99.90
5415;DHT22;2730;51.512;7.504;2023-05-24T00:58:01;7.90;84.60
5415;DHT22;2730;51.512;7.504;2023-05-24T01:00:28;7.90;1.00
5415;DHT22;2730;51.512;7.504;2023-05-24T01:02:56;7.90;1.00
5415;DHT22;2730;51.512;7.504;2023-05-24T01:05:22;7.90;1.00
5415;DHT22;2730;51.512;7.504;2023-05-24T01:07:57;7.90;1.00
5415;DHT22;2730;51.512;7.504;2023-05-24T01:10:31;7.80;1.00
5415;DHT22;2730;51.512;7.504;2023-05-24T01:13:03;7.90;1.00
5415;DHT22;2730;51.512;7.504;2023-05-24T01:15:38;7.80;1.00
5415;DHT22;2730;51.512;7.504;2023-05-24T01:18:12;7.80;1.00
5415;DHT22;2730;51.512;7.504;2023-05-24T01:20:42;7.70;99.90
5415;DHT22;2730;51.512;7.504;2023-05-24T01:23:31;7.70;1.00
5415;DHT22;2730;51.512;7.504;2023-05-24T01:26:18;7.70;85.10
5415;DHT22;2730;51.512;7.504;2023-05-24T01:28:49;7.80;1.00
5415;DHT22;2730;51.512;7.504;2023-05-24T01:31:17;7.70;22.30
5415;DHT22;2730;51.512;7.504;2023-05-24T01:33:44;7.70;1.00
5415;DHT22;2730;51.512;7.504;2023-05-24T01:36:11;7.70;1.00
5415;DHT22;2730;51.512;7.504;2023-05-24T01:38:38;7.60;1.00
5415;DHT22;2730;51.512;7.504;2023-05-24T01:41:13;7.60;99.90
5415;DHT22;2730;51.512;7.504;2023-05-24T01:43:50;7.60;99.90
5415;DHT22;2730;51.512;7.504;2023-05-24T01:46:21;7.50;1.00
5415;DHT22;2730;51.512;7.504;2023-05-24T01:48:58;7.40;99.90
5415;DHT22;2730;51.512;7.504;2023-05-24T01:51:30;7.30;1.00
5415;DHT22;2730;51.512;7.504;2023-05-24T01:54:03;7.40;99.90
5415;DHT22;2730;51.512;7.504;2023-05-24T01:56:30;7.30;99.90
5415;DHT22;2730;51.512;7.504;2023-05-24T01:59:00;7.30;99.90
5415;DHT22;2730;51.512;7.504;2023-05-24T02:01:28;7.20;99.90
5415;DHT22;2730;51.512;7.504;2023-05-24T02:03:56;7.20;1.00
5415;DHT22;2730;51.512;7.504;2023-05-24T02:06:23;7.10;1.00
5415;DHT22;2730;51.512;7.504;2023-05-24T02:08:49;7.10;1.00
5415;DHT22;2730;51.512;7.504;2023-05-24T02:11:17;7.00;1.00
5415;DHT22;2730;51.512;7.504;2023-05-24T02:13:44;7.00;1.00
5415;DHT22;2730;51.512;7.504;2023-05-24T02:16:12;6.90;1.00
5415;DHT22;2730;51.512;7.504;2023-05-24T02:18:39;6.90;1.00
5415;DHT22;2730;51.512;7.504;2023-05-24T02:21:08;6.90;1.00
5415;DHT22;2730;51.512;7.504;2023-05-24T02:23:36;6.80;1.00
5415;DHT22;2730;51.512;7.504;2023-05-24T02:26:03;6.80;1.00
5415;DHT22;2730;51.512;7.504;2023-05-24T02:28:30;6.80;1.00
5415;DHT22;2730;51.512;7.504;2023-05-24T02:30:56;6.70;1.00
5415;DHT22;2730;51.512;7.504;2023-05-24T02:33:25;6.70;16.20
5415;DHT22;2730;51.512;7.504;2023-05-24T02:35:54;6.70;26.10
5415;DHT22;2730;51.512;7.504;2023-05-24T02:38:21;6.70;40.50
5415;DHT22;2730;51.512;7.504;2023-05-24T02:40:48;6.70;56.70
5415;DHT22;2730;51.512;7.504;2023-05-24T02:43:15;6.60;64.30
5415;DHT22;2730;51.512;7.504;2023-05-24T02:45:41;6.60;85.70
5415;DHT22;2730;51.512;7.504;2023-05-24T02:48:08;6.60;94.60
5415;DHT22;2730;51.512;7.504;2023-05-24T02:50:36;6.60;95.10
5415;DHT22;2730;51.512;7.504;2023-05-24T02:53:03;6.60;99.30
5415;DHT22;2730;51.512;7.504;2023-05-24T02:55:30;6.60;99.90
5415;DHT22;2730;51.512;7.504;2023-05-24T02:57:57;6.60;99.90
5415;DHT22;2730;51.512;7.504;2023-05-24T03:00:23;6.50;99.90
5415;DHT22;2730;51.512;7.504;2023-05-24T03:02:50;6.50;99.90
5415;DHT22;2730;51.512;7.504;2023-05-24T03:05:17;6.50;99.90
5415;DHT22;2730;51.512;7.504;2023-05-24T03:07:45;6.40;99.90
5415;DHT22;2730;51.512;7.504;2023-05-24T03:10:12;6.40;99.90
5415;DHT22;2730;51.512;7.504;2023-05-24T03:12:39;6.40;99.90
5415;DHT22;2730;51.512;7.504;2023-05-24T03:15:07;6.40;99.90
5415;DHT22;2730;51.512;7.504;2023-05-24T03:17:34;6.40;99.90
5415;DHT22;2730;51.512;7.504;2023-05-24T03:20:01;6.40;99.90
5415;DHT22;2730;51.512;7.504;2023-05-24T03:22:30;6.40;99.90
5415;DHT22;2730;51.512;7.504;2023-05-24T03:24:58;6.40;99.90
5415;DHT22;2730;51.512;7.504;2023-05-24T03:27:25;6.40;99.90
5415;DHT22;2730;51.512;7.504;2023-05-24T03:29:51;6.40;99.90
5415;DHT22;2730;51.512;7.504;2023-05-24T03:32:18;6.40;99.90
5415;DHT22;2730;51.512;7.504;2023-05-24T03:34:45;6.40;99.90
5415;DHT22;2730;51.512;7.504;2023-05-24T03:37:11;6.50;99.90
5415;DHT22;2730;51.512;7.504;2023-05-24T03:39:38;6.50;99.90
5415;DHT22;2730;51.512;7.504;2023-05-24T03:42:07;6.60;99.90
5415;DHT22;2730;51.512;7.504;2023-05-24T03:44:33;6.60;99.90
5415;DHT22;2730;51.512;7.504;2023-05-24T03:47:00;6.60;99.90
5415;DHT22;2730;51.512;7.504;2023-05-24T03:49:28;6.70;99.90
5415;DHT22;2730;51.512;7.504;2023-05-24T03:51:55;6.70;99.90
5415;DHT22;2730;51.512;7.504;2023-05-24T03:54:21;6.80;99.90
5415;DHT22;2730;51.512;7.504;2023-05-24T03:56:49;6.80;99.90
5415;DHT22;2730;51.512;7.504;2023-05-24T03:59:19;6.90;99.90
5415;DHT22;2730;51.512;7.504;2023-05-24T04:01:46;6.90;99.90
5415;DHT22;2730;51.512;7.504;2023-05-24T04:04:13;7.00;99.90
5415;DHT22;2730;51.512;7.504;2023-05-24T04:06:40;7.10;99.90
5415;DHT22;2730;51.512;7.504;2023-05-24T04:09:06;7.10;99.90
5415;DHT22;2730;51.512;7.504;2023-05-24T04:11:34;7.20;99.90
5415;DHT22;2730;51.512;7.504;2023-05-24T04:14:01;7.20;99.90
5415;DHT22;2730;51.512;7.504;2023-05-24T04:16:29;7.20;99.90
5415;DHT22;2730;51.512;7.504;2023-05-24T04:18:58;7.30;99.90
5415;DHT22;2730;51.512;7.504;2023-05-24T04:21:26;7.40;99.90
5415;DHT22;2730;51.512;7.504;2023-05-24T04:23:53;7.60;99.90
5415;DHT22;2730;51.512;7.504;2023-05-24T04:26:20;7.80;95.80
5415;DHT22;2730;51.512;7.504;2023-05-24T04:28:47;8.00;62.10
5415;DHT22;2730;51.512;7.504;2023-05-24T04:31:14;8.10;20.90
5415;DHT22;2730;51.512;7.504;2023-05-24T04:33:42;8.30;1.00
5415;DHT22;2730;51.512;7.504;2023-05-24T04:36:09;8.40;1.00
5415;DHT22;2730;51.512;7.504;2023-05-24T04:38:38;8.40;1.00
5415;DHT22;2730;51.512;7.504;2023-05-24T04:41:05;8.40;1.00
5415;DHT22;2730;51.512;7.504;2023-05-24T04:43:32;8.40;1.00
5415;DHT22;2730;51.512;7.504;2023-05-24T04:45:59;8.40;1.00
5415;DHT22;2730;51.512;7.504;2023-05-24T04:48:26;8.50;1.00
5415;DHT22;2730;51.512;7.504;2023-05-24T04:50:55;8.60;1.00
5415;DHT22;2730;51.512;7.504;2023-05-24T04:53:23;8.80;1.00
5415;DHT22;2730;51.512;7.504;2023-05-24T04:55:51;8.80;1.00
5415;DHT22;2730;51.512;7.504;2023-05-24T04:58:18;8.80;1.00
5415;DHT22;2730;51.512;7.504;2023-05-24T05:00:45;8.80;1.00
5415;DHT22;2730;51.512;7.504;2023-05-24T05:03:12;8.80;1.00
5415;DHT22;2730;51.512;7.504;2023-05-24T05:05:38;8.80;1.00
5415;DHT22;2730;51.512;7.504;2023-05-24T05:08:07;8.80;1.00
5415;DHT22;2730;51.512;7.504;2023-05-24T05:10:34;8.80;1.00
5415;DHT22;2730;51.512;7.504;2023-05-24T05:13:01;8.90;1.00
5415;DHT22;2730;51.512;7.504;2023-05-24T05:15:28;9.30;1.00
5415;DHT22;2730;51.512;7.504;2023-05-24T05:17:55;9.70;99.90
5415;DHT22;2730;51.512;7.504;2023-05-24T05:20:21;9.90;1.00
5415;DHT22;2730;51.512;7.504;2023-05-24T05:22:49;9.90;68.30
5415;DHT22;2730;51.512;7.504;2023-05-24T05:25:17;9.90;99.90
5415;DHT22;2730;51.512;7.504;2023-05-24T05:27:44;9.90;99.90
5415;DHT22;2730;51.512;7.504;2023-05-24T05:30:11;9.90;87.90
5415;DHT22;2730;51.512;7.504;2023-05-24T05:32:38;9.90;99.90
5415;DHT22;2730;51.512;7.504;2023-05-24T05:35:05;10.00;1.00
5415;DHT22;2730;51.512;7.504;2023-05-24T05:37:32;10.10;99.90
5415;DHT22;2730;51.512;7.504;2023-05-24T05:39:59;10.10;99.90
5415;DHT22;2730;51.512;7.504;2023-05-24T05:42:27;10.00;1.00
5415;DHT22;2730;51.512;7.504;2023-05-24T05:44:54;9.90;1.00
5415;DHT22;2730;51.512;7.504;2023-05-24T05:47:20;9.90;1.00
5415;DHT22;2730;51.512;7.504;2023-05-24T05:49:47;9.90;99.90
5415;DHT22;2730;51.512;7.504;2023-05-24T05:52:14;9.90;91.70
5415;DHT22;2730;51.512;7.504;2023-05-24T05:54:41;10.00;1.00
5415;DHT22;2730;51.512;7.504;2023-05-24T05:57:07;10.10;20.00
5415;DHT22;2730;51.512;7.504;2023-05-24T05:59:37;10.10;99.90
5415;DHT22;2730;51.512;7.504;2023-05-24T06:02:04;10.20;1.00
5415;DHT22;2730;51.512;7.504;2023-05-24T06:04:31;10.30;1.00
5415;DHT22;2730;51.512;7.504;2023-05-24T06:06:58;10.10;99.90
5415;DHT22;2730;51.512;7.504;2023-05-24T06:09:25;10.30;99.90
5415;DHT22;2730;51.512;7.504;2023-05-24T06:11:51;10.30;99.90
5415;DHT22;2730;51.512;7.504;2023-05-24T06:14:18;10.40;1.00
5415;DHT22;2730;51.512;7.504;2023-05-24T06:16:48;10.50;99.90
5415;DHT22;2730;51.512;7.504;2023-05-24T06:19:17;10.60;99.90
5415;DHT22;2730;51.512;7.504;2023-05-24T06:21:43;10.70;99.90
5415;DHT22;2730;51.512;7.504;2023-05-24T06:24:12;10.80;11.60
5415;DHT22;2730;51.512;7.504;2023-05-24T06:26:39;10.90;1.00
5415;DHT22;2730;51.512;7.504;2023-05-24T06:29:06;11.10;99.90
5415;DHT22;2730;51.512;7.504;2023-05-24T06:31:33;11.20;99.90
5415;DHT22;2730;51.512;7.504;2023-05-24T06:34:02;11.10;87.40
5415;DHT22;2730;51.512;7.504;2023-05-24T06:36:28;11.00;1.00
5415;DHT22;2730;51.512;7.504;2023-05-24T06:38:58;10.90;1.00
5415;DHT22;2730;51.512;7.504;2023-05-24T06:41:25;10.80;1.00
5415;DHT22;2730;51.512;7.504;2023-05-24T06:43:52;10.80;1.00
5415;DHT22;2730;51.512;7.504;2023-05-24T06:46:19;10.60;99.90
5415;DHT22;2730;51.512;7.504;2023-05-24T06:48:46;10.70;1.00
5415;DHT22;2730;51.512;7.504;2023-05-24T06:51:14;10.90;99.90
5415;DHT22;2730;51.512;7.504;2023-05-24T06:53:41;11.50;99.90
5415;DHT22;2730;51.512;7.504;2023-05-24T06:56:09;12.30;99.90
5415;DHT22;2730;51.512;7.504;2023-05-24T06:58:35;12.70;99.90
5415;DHT22;2730;51.512;7.504;2023-05-24T07:01:02;13.10;1.00
5415;DHT22;2730;51.512;7.504;2023-05-24T07:03:29;13.90;99.90
5415;DHT22;2730;51.512;7.504;2023-05-24T07:05:56;14.30;1.00
5415;DHT22;2730;51.512;7.504;2023-05-24T07:08:25;14.70;99.90
5415;DHT22;2730;51.512;7.504;2023-05-24T07:10:52;14.70;99.90
5415;DHT22;2730;51.512;7.504;2023-05-24T07:13:20;14.40;99.90
5415;DHT22;2730;51.512;7.504;2023-05-24T07:15:48;14.40;99.90
5415;DHT22;2730;51.512;7.504;2023-05-24T07:18:15;14.00;1.00
5415;DHT22;2730;51.512;7.504;2023-05-24T07:20:42;13.60;1.00
5415;DHT22;2730;51.512;7.504;2023-05-24T07:23:09;13.40;1.00
5415;DHT22;2730;51.512;7.504;2023-05-24T07:25:37;13.30;2.90
5415;DHT22;2730;51.512;7.504;2023-05-24T07:28:04;12.90;99.90
5415;DHT22;2730;51.512;7.504;2023-05-24T07:30:31;12.80;99.90
5415;DHT22;2730;51.512;7.504;2023-05-24T07:32:58;12.60;99.90
5415;DHT22;2730;51.512;7.504;2023-05-24T07:35:25;12.60;99.90
5415;DHT22;2730;51.512;7.504;2023-05-24T07:37:53;12.50;99.90
5415;DHT22;2730;51.512;7.504;2023-05-24T07:40:20;12.40;1.00
5415;DHT22;2730;51.512;7.504;2023-05-24T07:42:48;12.30;1.00
5415;DHT22;2730;51.512;7.504;2023-05-24T07:45:16;12.20;1.00
5415;DHT22;2730;51.512;7.504;2023-05-24T07:47:42;12.00;99.90
5415;DHT22;2730;51.512;7.504;2023-05-24T07:50:10;12.20;93.40
5415;DHT22;2730;51.512;7.504;2023-05-24T07:52:37;12.20;99.90
5415;DHT22;2730;51.512;7.504;2023-05-24T07:55:04;12.30;1.00
5415;DHT22;2730;51.512;7.504;2023-05-24T07:57:31;12.20;1.00
5415;DHT22;2730;51.512;7.504;2023-05-24T07:59:59;12.20;1.00
5415;DHT22;2730;51.512;7.504;2023-05-24T08:02:31;12.10;99.90
5415;DHT22;2730;51.512;7.504;2023-05-24T08:04:59;11.90;1.00
5415;DHT22;2730;51.512;7.504;2023-05-24T08:07:25;11.80;1.00
5415;DHT22;2730;51.512;7.504;2023-05-24T08:09:52;11.70;1.00
5415;DHT22;2730;51.512;7.504;2023-05-24T08:12:19;11.70;1.00
5415;DHT22;2730;51.512;7.504;2023-05-24T08:14:46;11.70;99.90
5415;DHT22;2730;51.512;7.504;2023-05-24T08:17:14;11.70;99.90
5415;DHT22;2730;51.512;7.504;2023-05-24T08:19:41;11.90;99.90
5415;DHT22;2730;51.512;7.504;2023-05-24T08:22:07;12.10;99.90
5415;DHT22;2730;51.512;7.504;2023-05-24T08:24:34;12.30;1.00
5415;DHT22;2730;51.512;7.504;2023-05-24T08:27:01;12.30;1.00
5415;DHT22;2730;51.512;7.504;2023-05-24T08:29:28;12.50;1.00
5415;DHT22;2730;51.512;7.504;2023-05-24T08:31:55;12.70;1.00
5415;DHT22;2730;51.512;7.504;2023-05-24T08:34:23;13.00;1.00
5415;DHT22;2730;51.512;7.504;2023-05-24T08:36:51;13.30;99.90
5415;DHT22;2730;51.512;7.504;2023-05-24T08:39:18;13.60;35.20
5415;DHT22;2730;51.512;7.504;2023-05-24T08:41:45;13.80;1.00
5415;DHT22;2730;51.512;7.504;2023-05-24T08:44:12;13.70;1.00
5415;DHT22;2730;51.512;7.504;2023-05-24T08:46:39;13.50;99.90
5415;DHT22;2730;51.512;7.504;2023-05-24T08:49:06;13.30;99.90
5415;DHT22;2730;51.512;7.504;2023-05-24T08:51:34;13.10;1.00
5415;DHT22;2730;51.512;7.504;2023-05-24T08:54:04;12.90;99.90
5415;DHT22;2730;51.512;7.504;2023-05-24T08:56:32;12.90;1.00
5415;DHT22;2730;51.512;7.504;2023-05-24T08:58:59;12.90;99.90
5415;DHT22;2730;51.512;7.504;2023-05-24T09:01:26;12.90;99.90
5415;DHT22;2730;51.512;7.504;2023-05-24T09:03:54;12.80;99.90
5415;DHT22;2730;51.512;7.504;2023-05-24T09:06:21;12.80;1.00
5415;DHT22;2730;51.512;7.504;2023-05-24T09:08:51;12.70;1.00
5415;DHT22;2730;51.512;7.504;2023-05-24T09:11:19;12.60;1.00
5415;DHT22;2730;51.512;7.504;2023-05-24T09:13:47;12.70;1.00
5415;DHT22;2730;51.512;7.504;2023-05-24T09:16:14;12.80;1.00
5415;DHT22;2730;51.512;7.504;2023-05-24T09:18:41;12.90;1.00
5415;DHT22;2730;51.512;7.504;2023-05-24T09:21:09;13.40;1.00
5415;DHT22;2730;51.512;7.504;2023-05-24T09:23:36;13.80;99.90
5415;DHT22;2730;51.512;7.504;2023-05-24T09:26:07;14.30;99.90
5415;DHT22;2730;51.512;7.504;2023-05-24T09:28:35;14.90;99.90
5415;DHT22;2730;51.512;7.504;2023-05-24T09:31:02;15.00;1.00
5415;DHT22;2730;51.512;7.504;2023-05-24T09:33:30;14.90;1.00
5415;DHT22;2730;51.512;7.504;2023-05-24T09:35:58;15.10;1.00
5415;DHT22;2730;51.512;7.504;2023-05-24T09:38:26;15.00;1.00
5415;DHT22;2730;51.512;7.504;2023-05-24T09:40:59;14.70;1.00
5415;DHT22;2730;51.512;7.504;2023-05-24T09:43:28;14.30;1.00
5415;DHT22;2730;51.512;7.504;2023-05-24T09:45:55;13.90;1.00
5415;DHT22;2730;51.512;7.504;2023-05-24T09:48:24;13.40;1.00
5415;DHT22;2730;51.512;7.504;2023-05-24T09:51:05;13.50;25.20
5415;DHT22;2730;51.512;7.504;2023-05-24T09:53:35;13.60;18.20
5415;DHT22;2730;51.512;7.504;2023-05-24T09:56:03;13.80;50.40
5415;DHT22;2730;51.512;7.504;2023-05-24T09:58:32;13.70;46.50
5415;DHT22;2730;51.512;7.504;2023-05-24T10:01:05;14.10;1.00
5415;DHT22;2730;51.512;7.504;2023-05-24T10:03:33;14.50;1.00
5415;DHT22;2730;51.512;7.504;2023-05-24T10:06:02;14.60;1.00
5415;DHT22;2730;51.512;7.504;2023-05-24T10:08:32;14.70;1.00
5415;DHT22;2730;51.512;7.504;2023-05-24T10:11:01;14.30;1.00
5415;DHT22;2730;51.512;7.504;2023-05-24T10:13:28;14.00;1.00
5415;DHT22;2730;51.512;7.504;2023-05-24T10:15:57;14.00;11.60
5415;DHT22;2730;51.512;7.504;2023-05-24T10:18:23;14.10;5.00
5415;DHT22;2730;51.512;7.504;2023-05-24T10:20:52;14.10;1.00
5415;DHT22;2730;51.512;7.504;2023-05-24T10:23:21;13.90;1.00
5415;DHT22;2730;51.512;7.504;2023-05-24T10:25:54;13.90;38.90
5415;DHT22;2730;51.512;7.504;2023-05-24T10:28:23;13.80;24.70
5415;DHT22;2730;51.512;7.504;2023-05-24T10:31:00;13.50;4.60
5415;DHT22;2730;51.512;7.504;2023-05-24T10:33:28;13.30;17.50
5415;DHT22;2730;51.512;7.504;2023-05-24T10:35:56;13.20;47.50
5415;DHT22;2730;51.512;7.504;2023-05-24T10:38:24;13.30;79.80
5415;DHT22;2730;51.512;7.504;2023-05-24T10:40:51;13.30;14.80
5415;DHT22;2730;51.512;7.504;2023-05-24T10:43:18;13.30;24.60
5415;DHT22;2730;51.512;7.504;2023-05-24T10:45:48;13.40;36.00
5415;DHT22;2730;51.512;7.504;2023-05-24T10:48:35;13.30;23.20
5415;DHT22;2730;51.512;7.504;2023-05-24T10:51:34;13.20;42.40
5415;DHT22;2730;51.512;7.504;2023-05-24T10:54:13;13.20;91.40
5415;DHT22;2730;51.512;7.504;2023-05-24T10:56:40;13.30;98.50
5415;DHT22;2730;51.512;7.504;2023-05-24T10:59:08;13.30;99.80
5415;DHT22;2730;51.512;7.504;2023-05-24T11:01:35;13.20;99.90
5415;DHT22;2730;51.512;7.504;2023-05-24T11:04:08;13.20;97.50
5415;DHT22;2730;51.512;7.504;2023-05-24T11:06:44;13.20;43.70
5415;DHT22;2730;51.512;7.504;2023-05-24T11:09:13;13.20;91.00
5415;DHT22;2730;51.512;7.504;2023-05-24T11:11:43;13.30;60.00
5415;DHT22;2730;51.512;7.504;2023-05-24T11:14:12;13.30;1.00
5415;DHT22;2730;51.512;7.504;2023-05-24T11:16:39;13.50;30.80
5415;DHT22;2730;51.512;7.504;2023-05-24T11:19:16;13.70;20.20
5415;DHT22;2730;51.512;7.504;2023-05-24T11:21:45;13.70;1.00
5415;DHT22;2730;51.512;7.504;2023-05-24T11:24:12;13.70;1.00
5415;DHT22;2730;51.512;7.504;2023-05-24T11:26:39;13.60;1.00
5415;DHT22;2730;51.512;7.504;2023-05-24T11:29:06;13.70;1.00
5415;DHT22;2730;51.512;7.504;2023-05-24T11:31:33;13.80;1.00
5415;DHT22;2730;51.512;7.504;2023-05-24T11:34:04;13.80;1.00
5415;DHT22;2730;51.512;7.504;2023-05-24T11:36:32;13.80;1.00
5415;DHT22;2730;51.512;7.504;2023-05-24T11:39:01;13.70;1.00
5415;DHT22;2730;51.512;7.504;2023-05-24T11:41:34;13.80;1.00
5415;DHT22;2730;51.512;7.504;2023-05-24T11:44:02;13.60;1.00
5415;DHT22;2730;51.512;7.504;2023-05-24T11:46:29;13.60;1.00
5415;DHT22;2730;51.512;7.504;2023-05-24T11:48:56;13.50;1.00
5415;DHT22;2730;51.512;7.504;2023-05-24T11:51:26;13.50;1.00
5415;DHT22;2730;51.512;7.504;2023-05-24T11:53:56;13.50;1.00
5415;DHT22;2730;51.512;7.504;2023-05-24T11:56:23;13.50;25.30
5415;DHT22;2730;51.512;7.504;2023-05-24T11:58:59;13.60;33.60
5415;DHT22;2730;51.512;7.504;2023-05-24T12:01:30;13.70;19.20
5415;DHT22;2730;51.512;7.504;2023-05-24T12:03:56;13.70;1.00
5415;DHT22;2730;51.512;7.504;2023-05-24T12:06:33;13.50;21.80
5415;DHT22;2730;51.512;7.504;2023-05-24T12:09:01;13.40;74.00
5415;DHT22;2730;51.512;7.504;2023-05-24T12:11:32;13.30;95.00
5415;DHT22;2730;51.512;7.504;2023-05-24T12:13:59;13.30;99.90
5415;DHT22;2730;51.512;7.504;2023-05-24T12:16:26;13.20;99.90
5415;DHT22;2730;51.512;7.504;2023-05-24T12:18:56;13.10;99.90
5415;DHT22;2730;51.512;7.504;2023-05-24T12:21:23;13.20;99.90
5415;DHT22;2730;51.512;7.504;2023-05-24T12:23:50;13.40;99.90
5415;DHT22;2730;51.512;7.504;2023-05-24T12:26:18;13.50;99.90
5415;DHT22;2730;51.512;7.504;2023-05-24T12:28:51;13.80;99.90
5415;DHT22;2730;51.512;7.504;2023-05-24T12:31:19;14.00;99.90
5415;DHT22;2730;51.512;7.504;2023-05-24T12:33:46;14.10;99.90
5415;DHT22;2730;51.512;7.504;2023-05-24T12:36:13;14.20;72.40
5415;DHT22;2730;51.512;7.504;2023-05-24T12:38:40;14.40;39.10
5415;DHT22;2730;51.512;7.504;2023-05-24T12:41:06;14.50;4.50
5415;DHT22;2730;51.512;7.504;2023-05-24T12:43:35;14.80;1.00
5415;DHT22;2730;51.512;7.504;2023-05-24T12:46:03;14.90;1.00
5415;DHT22;2730;51.512;7.504;2023-05-24T12:48:30;14.90;1.00
5415;DHT22;2730;51.512;7.504;2023-05-24T12:50:56;14.70;1.00
5415;DHT22;2730;51.512;7.504;2023-05-24T12:53:23;14.60;1.00
5415;DHT22;2730;51.512;7.504;2023-05-24T12:55:50;14.70;1.00
5415;DHT22;2730;51.512;7.504;2023-05-24T12:58:20;14.70;1.00
5415;DHT22;2730;51.512;7.504;2023-05-24T13:00:48;14.70;1.00
5415;DHT22;2730;51.512;7.504;2023-05-24T13:03:16;14.70;1.00
5415;DHT22;2730;51.512;7.504;2023-05-24T13:05:43;14.60;1.00
5415;DHT22;2730;51.512;7.504;2023-05-24T13:08:10;14.50;1.00
5415;DHT22;2730;51.512;7.504;2023-05-24T13:10:38;14.60;1.00
5415;DHT22;2730;51.512;7.504;2023-05-24T13:13:05;14.60;1.00
5415;DHT22;2730;51.512;7.504;2023-05-24T13:15:32;14.60;1.00
5415;DHT22;2730;51.512;7.504;2023-05-24T13:18:00;14.80;1.00
5415;DHT22;2730;51.512;7.504;2023-05-24T13:20:27;15.00;1.00
5415;DHT22;2730;51.512;7.504;2023-05-24T13:22:53;15.00;1.00
5415;DHT22;2730;51.512;7.504;2023-05-24T13:25:20;14.80;1.00
5415;DHT22;2730;51.512;7.504;2023-05-24T13:27:47;14.90;1.00
5415;DHT22;2730;51.512;7.504;2023-05-24T13:30:14;15.00;1.00
5415;DHT22;2730;51.512;7.504;2023-05-24T13:32:42;14.90;1.00
5415;DHT22;2730;51.512;7.504;2023-05-24T13:35:10;14.80;98.70
5415;DHT22;2730;51.512;7.504;2023-05-24T13:37:37;14.70;96.00
5415;DHT22;2730;51.512;7.504;2023-05-24T13:40:05;14.60;99.90
5415;DHT22;2730;51.512;7.504;2023-05-24T13:42:32;14.70;99.90
5415;DHT22;2730;51.512;7.504;2023-05-24T13:44:59;14.80;99.90
5415;DHT22;2730;51.512;7.504;2023-05-24T13:47:27;15.00;99.90
5415;DHT22;2730;51.512;7.504;2023-05-24T13:49:54;15.10;99.90
5415;DHT22;2730;51.512;7.504;2023-05-24T13:52:22;15.30;99.90
5415;DHT22;2730;51.512;7.504;2023-05-24T13:54:50;15.10;99.90
5415;DHT22;2730;51.512;7.504;2023-05-24T13:57:17;15.00;99.90
5415;DHT22;2730;51.512;7.504;2023-05-24T13:59:44;14.90;99.90
5415;DHT22;2730;51.512;7.504;2023-05-24T14:02:11;14.90;99.90
5415;DHT22;2730;51.512;7.504;2023-05-24T14:04:38;14.90;99.90
5415;DHT22;2730;51.512;7.504;2023-05-24T14:07:04;15.00;95.20
5415;DHT22;2730;51.512;7.504;2023-05-24T14:09:34;15.00;53.30
5415;DHT22;2730;51.512;7.504;2023-05-24T14:12:01;15.10;11.80
5415;DHT22;2730;51.512;7.504;2023-05-24T14:14:28;15.20;16.20
5415;DHT22;2730;51.512;7.504;2023-05-24T14:16:55;15.20;73.20
5415;DHT22;2730;51.512;7.504;2023-05-24T14:19:22;15.20;29.50
5415;DHT22;2730;51.512;7.504;2023-05-24T14:21:49;15.10;34.20
5415;DHT22;2730;51.512;7.504;2023-05-24T14:24:16;15.10;52.30
5415;DHT22;2730;51.512;7.504;2023-05-24T14:26:44;14.70;63.60
5415;DHT22;2730;51.512;7.504;2023-05-24T14:29:12;14.70;97.80
5415;DHT22;2730;51.512;7.504;2023-05-24T14:31:38;14.80;99.80
5415;DHT22;2730;51.512;7.504;2023-05-24T14:34:08;14.80;97.60
5415;DHT22;2730;51.512;7.504;2023-05-24T14:36:35;14.90;91.80
5415;DHT22;2730;51.512;7.504;2023-05-24T14:39:03;14.90;86.20
5415;DHT22;2730;51.512;7.504;2023-05-24T14:41:31;15.00;39.40
5415;DHT22;2730;51.512;7.504;2023-05-24T14:43:59;15.20;39.20
5415;DHT22;2730;51.512;7.504;2023-05-24T14:46:26;15.20;22.60
5415;DHT22;2730;51.512;7.504;2023-05-24T14:48:53;15.20;28.50
5415;DHT22;2730;51.512;7.504;2023-05-24T14:51:20;15.10;49.20
5415;DHT22;2730;51.512;7.504;2023-05-24T14:53:46;15.10;97.20
5415;DHT22;2730;51.512;7.504;2023-05-24T14:56:13;15.30;60.20
5415;DHT22;2730;51.512;7.504;2023-05-24T14:58:40;15.40;99.90
5415;DHT22;2730;51.512;7.504;2023-05-24T15:01:08;15.50;35.80
5415;DHT22;2730;51.512;7.504;2023-05-24T15:03:35;15.40;26.30
5415;DHT22;2730;51.512;7.504;2023-05-24T15:06:02;15.50;48.20
5415;DHT22;2730;51.512;7.504;2023-05-24T15:08:29;15.50;1.00
5415;DHT22;2730;51.512;7.504;2023-05-24T15:10:56;15.50;24.70
5415;DHT22;2730;51.512;7.504;2023-05-24T15:13:23;15.70;10.10
5415;DHT22;2730;51.512;7.504;2023-05-24T15:15:50;15.60;1.00
5415;DHT22;2730;51.512;7.504;2023-05-24T15:18:22;15.80;1.00
5415;DHT22;2730;51.512;7.504;2023-05-24T15:20:52;15.80;1.00
5415;DHT22;2730;51.512;7.504;2023-05-24T15:23:19;15.70;1.00
5415;DHT22;2730;51.512;7.504;2023-05-24T15:25:46;15.90;1.00
5415;DHT22;2730;51.512;7.504;2023-05-24T15:28:12;15.80;1.00
5415;DHT22;2730;51.512;7.504;2023-05-24T15:30:41;15.80;1.00
5415;DHT22;2730;51.512;7.504;2023-05-24T15:33:10;15.70;1.00
5415;DHT22;2730;51.512;7.504;2023-05-24T15:35:38;15.60;1.00
5415;DHT22;2730;51.512;7.504;2023-05-24T15:38:05;15.60;1.00
5415;DHT22;2730;51.512;7.504;2023-05-24T15:40:32;15.70;1.00
5415;DHT22;2730;51.512;7.504;2023-05-24T15:42:59;15.80;1.00
5415;DHT22;2730;51.512;7.504;2023-05-24T15:45:26;15.60;1.00
5415;DHT22;2730;51.512;7.504;2023-05-24T15:47:53;15.70;1.00
5415;DHT22;2730;51.512;7.504;2023-05-24T15:50:20;15.70;1.00
5415;DHT22;2730;51.512;7.504;2023-05-24T15:52:48;15.60;1.00
5415;DHT22;2730;51.512;7.504;2023-05-24T15:55:15;15.50;1.00
5415;DHT22;2730;51.512;7.504;2023-05-24T15:57:42;15.30;1.00
5415;DHT22;2730;51.512;7.504;2023-05-24T16:00:10;15.40;5.80
5415;DHT22;2730;51.512;7.504;2023-05-24T16:02:37;15.30;25.00
5415;DHT22;2730;51.512;7.504;2023-05-24T16:05:04;15.20;93.80
5415;DHT22;2730;51.512;7.504;2023-05-24T16:07:31;15.40;87.70
5415;DHT22;2730;51.512;7.504;2023-05-24T16:09:59;15.40;60.90
5415;DHT22;2730;51.512;7.504;2023-05-24T16:12:26;15.30;87.10
5415;DHT22;2730;51.512;7.504;2023-05-24T16:14:53;15.30;99.90
5415;DHT22;2730;51.512;7.504;2023-05-24T16:17:20;15.30;99.60
5415;DHT22;2730;51.512;7.504;2023-05-24T16:19:46;15.30;99.90